sensor_id;sensor_type;location;lat;lon;timestamp;temperature;humidity
29539;DHT22;16482;51.046;4.498;2023-12-14T00:00:05;23.80;38.80
29539;DHT22;16482;51.046;4.498;2023-12-14T00:02:33;23.80;38.80
29539;DHT22;16482;51.046;4.498;2023-12-14T00:05:02;23.80;38.90
29539;DHT22;16482;51.046;4.498;2023-12-14T00:07:28;23.80;38.90
29539;DHT22;16482;51.046;4.498;2023-12-14T00:10:02;23.80;38.90
29539;DHT22;16482;51.046;4.498;2023-12-14T00:12:39;23.80;38.80
29539;DHT22;16482;51.046;4.498;2023-12-14T00:15:06;23.80;38.90
29539;DHT22;16482;51.046;4.498;2023-12-14T00:17:32;23.80;38.80
29539;DHT22;16482;51.046;4.498;2023-12-14T00:20:01;23.80;38.80
29539;DHT22;16482;51.046;4.498;2023-12-14T00:22:26;23.70;38.80
29539;DHT22;16482;51.046;4.498;2023-12-14T00:24:55;23.70;38.80
29539;DHT22;16482;51.046;4.498;2023-12-14T00:27:21;23.80;38.80
29539;DHT22;16482;51.046;4.498;2023-12-14T00:29:49;23.70;38.80
29539;DHT22;16482;51.046;4.498;2023-12-14T00:32:15;23.70;38.80
29539;DHT22;16482;51.046;4.498;2023-12-14T00:34:50;23.70;38.80
29539;DHT22;16482;51.046;4.498;2023-12-14T00:37:16;23.70;38.80
29539;DHT22;16482;51.046;4.498;2023-12-14T00:39:45;23.70;38.80
29539;DHT22;16482;51.046;4.498;2023-12-14T00:42:21;23.70;38.80
29539;DHT22;16482;51.046;4.498;2023-12-14T00:44:57;23.70;38.90
29539;DHT22;16482;51.046;4.498;2023-12-14T00:47:23;23.70;38.80
29539;DHT22;16482;51.046;4.498;2023-12-14T00:49:52;23.70;38.90
29539;DHT22;16482;51.046;4.498;2023-12-14T00:52:28;23.60;38.80
29539;DHT22;16482;51.046;4.498;2023-12-14T00:54:57;23.70;38.80
29539;DHT22;16482;51.046;4.498;2023-12-14T00:57:23;23.70;39.40
29539;DHT22;16482;51.046;4.498;2023-12-14T00:59:48;23.70;38.90
29539;DHT22;16482;51.046;4.498;2023-12-14T01:02:25;23.70;39.00
29539;DHT22;16482;51.046;4.498;2023-12-14T01:04:53;23.60;38.90
29539;DHT22;16482;51.046;4.498;2023-12-14T01:07:18;23.60;38.80
29539;DHT22;16482;51.046;4.498;2023-12-14T01:09:45;23.60;38.80
29539;DHT22;16482;51.046;4.498;2023-12-14T01:12:11;23.60;38.80
29539;DHT22;16482;51.046;4.498;2023-12-14T01:14:48;23.60;38.80
29539;DHT22;16482;51.046;4.498;2023-12-14T01:17:19;23.60;38.70
29539;DHT22;16482;51.046;4.498;2023-12-14T01:19:45;23.60;38.80
29539;DHT22;16482;51.046;4.498;2023-12-14T01:22:11;23.60;38.80
29539;DHT22;16482;51.046;4.498;2023-12-14T01:24:49;23.60;38.70
29539;DHT22;16482;51.046;4.498;2023-12-14T01:27:25;23.60;38.70
29539;DHT22;16482;51.046;4.498;2023-12-14T01:29:58;23.60;38.50
29539;DHT22;16482;51.046;4.498;2023-12-14T01:32:34;23.60;38.50
29539;DHT22;16482;51.046;4.498;2023-12-14T01:35:10;23.50;38.50
29539;DHT22;16482;51.046;4.498;2023-12-14T01:37:36;23.60;39.20
29539;DHT22;16482;51.046;4.498;2023-12-14T01:40:05;23.60;38.40
29539;DHT22;16482;51.046;4.498;2023-12-14T01:42:42;23.60;38.30
29539;DHT22;16482;51.046;4.498;2023-12-14T01:45:08;23.60;38.30
29539;DHT22;16482;51.046;4.498;2023-12-14T01:47:34;23.60;38.20
29539;DHT22;16482;51.046;4.498;2023-12-14T01:50:03;23.60;38.20
29539;DHT22;16482;51.046;4.498;2023-12-14T01:52:29;23.60;38.20
29539;DHT22;16482;51.046;4.498;2023-12-14T01:54:55;23.60;38.20
29539;DHT22;16482;51.046;4.498;2023-12-14T01:57:31;23.60;38.20
29539;DHT22;16482;51.046;4.498;2023-12-14T02:00:13;23.60;38.20
29539;DHT22;16482;51.046;4.498;2023-12-14T02:02:44;23.60;38.00
29539;DHT22;16482;51.046;4.498;2023-12-14T02:05:20;23.50;38.10
29539;DHT22;16482;51.046;4.498;2023-12-14T02:07:57;23.50;38.00
29539;DHT22;16482;51.046;4.498;2023-12-14T02:10:25;23.60;38.10
29539;DHT22;16482;51.046;4.498;2023-12-14T02:12:54;23.50;38.00
29539;DHT22;16482;51.046;4.498;2023-12-14T02:15:30;23.50;38.00
29539;DHT22;16482;51.046;4.498;2023-12-14T02:17:59;23.50;37.90
29539;DHT22;16482;51.046;4.498;2023-12-14T02:20:34;23.50;37.90
29539;DHT22;16482;51.046;4.498;2023-12-14T02:23:09;23.50;37.90
29539;DHT22;16482;51.046;4.498;2023-12-14T02:25:46;23.50;37.90
29539;DHT22;16482;51.046;4.498;2023-12-14T02:28:11;23.50;37.90
29539;DHT22;16482;51.046;4.498;2023-12-14T02:30:46;23.40;37.80
29539;DHT22;16482;51.046;4.498;2023-12-14T02:33:21;23.50;37.80
29539;DHT22;16482;51.046;4.498;2023-12-14T02:35:47;23.50;37.80
29539;DHT22;16482;51.046;4.498;2023-12-14T02:38:13;23.40;37.80
29539;DHT22;16482;51.046;4.498;2023-12-14T02:40:48;23.50;37.80
29539;DHT22;16482;51.046;4.498;2023-12-14T02:43:16;23.50;37.80
29539;DHT22;16482;51.046;4.498;2023-12-14T02:45:52;23.50;37.80
29539;DHT22;16482;51.046;4.498;2023-12-14T02:48:20;23.40;37.70
29539;DHT22;16482;51.046;4.498;2023-12-14T02:50:46;23.40;37.70
29539;DHT22;16482;51.046;4.498;2023-12-14T02:53:15;23.40;37.70
29539;DHT22;16482;51.046;4.498;2023-12-14T02:55:50;23.40;37.60
29539;DHT22;16482;51.046;4.498;2023-12-14T02:58:19;23.40;37.60
29539;DHT22;16482;51.046;4.498;2023-12-14T03:00:45;23.40;37.50
29539;DHT22;16482;51.046;4.498;2023-12-14T03:03:11;23.40;37.50
29539;DHT22;16482;51.046;4.498;2023-12-14T03:05:39;23.40;37.50
29539;DHT22;16482;51.046;4.498;2023-12-14T03:08:15;23.40;37.60
29539;DHT22;16482;51.046;4.498;2023-12-14T03:10:50;23.40;37.50
29539;DHT22;16482;51.046;4.498;2023-12-14T03:13:16;23.30;37.50
29539;DHT22;16482;51.046;4.498;2023-12-14T03:15:42;23.30;37.40
29539;DHT22;16482;51.046;4.498;2023-12-14T03:18:15;23.30;37.40
29539;DHT22;16482;51.046;4.498;2023-12-14T03:20:44;23.30;37.30
29539;DHT22;16482;51.046;4.498;2023-12-14T03:23:17;23.30;37.30
29539;DHT22;16482;51.046;4.498;2023-12-14T03:25:43;23.30;37.30
29539;DHT22;16482;51.046;4.498;2023-12-14T03:28:09;23.30;37.20
29539;DHT22;16482;51.046;4.498;2023-12-14T03:30:35;23.30;37.20
29539;DHT22;16482;51.046;4.498;2023-12-14T03:33:03;23.30;37.10
29539;DHT22;16482;51.046;4.498;2023-12-14T03:35:32;23.40;37.20
29539;DHT22;16482;51.046;4.498;2023-12-14T03:38:10;23.30;37.10
29539;DHT22;16482;51.046;4.498;2023-12-14T03:40:43;23.30;37.30
29539;DHT22;16482;51.046;4.498;2023-12-14T03:43:09;23.30;37.00
29539;DHT22;16482;51.046;4.498;2023-12-14T03:45:35;23.30;37.00
29539;DHT22;16482;51.046;4.498;2023-12-14T03:48:01;23.30;37.00
29539;DHT22;16482;51.046;4.498;2023-12-14T03:50:30;23.30;37.00
29539;DHT22;16482;51.046;4.498;2023-12-14T03:52:59;23.30;37.00
29539;DHT22;16482;51.046;4.498;2023-12-14T03:55:25;23.30;37.00
29539;DHT22;16482;51.046;4.498;2023-12-14T03:57:51;23.30;36.90
29539;DHT22;16482;51.046;4.498;2023-12-14T04:00:23;23.30;36.80
29539;DHT22;16482;51.046;4.498;2023-12-14T04:02:49;23.30;36.70
29539;DHT22;16482;51.046;4.498;2023-12-14T04:05:15;23.30;36.80
29539;DHT22;16482;51.046;4.498;2023-12-14T04:07:50;23.30;36.80
29539;DHT22;16482;51.046;4.498;2023-12-14T04:10:15;23.30;36.70
29539;DHT22;16482;51.046;4.498;2023-12-14T04:12:42;23.30;36.70
29539;DHT22;16482;51.046;4.498;2023-12-14T04:15:09;23.30;36.60
29539;DHT22;16482;51.046;4.498;2023-12-14T04:17:37;23.30;37.10
29539;DHT22;16482;51.046;4.498;2023-12-14T04:20:06;23.30;36.50
29539;DHT22;16482;51.046;4.498;2023-12-14T04:22:45;23.30;36.40
29539;DHT22;16482;51.046;4.498;2023-12-14T04:25:20;23.30;36.40
29539;DHT22;16482;51.046;4.498;2023-12-14T04:27:46;23.30;36.40
29539;DHT22;16482;51.046;4.498;2023-12-14T04:30:15;23.20;36.40
29539;DHT22;16482;51.046;4.498;2023-12-14T04:32:50;23.30;36.40
29539;DHT22;16482;51.046;4.498;2023-12-14T04:35:16;23.20;36.30
29539;DHT22;16482;51.046;4.498;2023-12-14T04:37:52;23.20;36.20
29539;DHT22;16482;51.046;4.498;2023-12-14T04:40:18;23.20;36.20
29539;DHT22;16482;51.046;4.498;2023-12-14T04:42:47;23.20;36.20
29539;DHT22;16482;51.046;4.498;2023-12-14T04:45:13;23.20;36.20
29539;DHT22;16482;51.046;4.498;2023-12-14T04:47:49;23.20;36.10
29539;DHT22;16482;51.046;4.498;2023-12-14T04:50:14;23.30;36.20
29539;DHT22;16482;51.046;4.498;2023-12-14T04:52:41;23.20;36.00
29539;DHT22;16482;51.046;4.498;2023-12-14T04:55:08;23.20;36.00
29539;DHT22;16482;51.046;4.498;2023-12-14T04:57:34;23.20;36.00
29539;DHT22;16482;51.046;4.498;2023-12-14T05:00:00;23.20;36.00
29539;DHT22;16482;51.046;4.498;2023-12-14T05:02:26;23.20;36.00
29539;DHT22;16482;51.046;4.498;2023-12-14T05:04:52;23.20;36.00
29539;DHT22;16482;51.046;4.498;2023-12-14T05:07:18;23.20;36.00
29539;DHT22;16482;51.046;4.498;2023-12-14T05:09:51;23.20;36.00
29539;DHT22;16482;51.046;4.498;2023-12-14T05:12:17;23.20;36.00
29539;DHT22;16482;51.046;4.498;2023-12-14T05:14:52;23.20;36.00
29539;DHT22;16482;51.046;4.498;2023-12-14T05:17:21;23.20;36.10
29539;DHT22;16482;51.046;4.498;2023-12-14T05:19:47;23.20;36.00
29539;DHT22;16482;51.046;4.498;2023-12-14T05:22:13;23.20;36.00
29539;DHT22;16482;51.046;4.498;2023-12-14T05:24:51;23.20;36.00
29539;DHT22;16482;51.046;4.498;2023-12-14T05:27:27;23.20;36.00
29539;DHT22;16482;51.046;4.498;2023-12-14T05:30:03;23.20;36.00
29539;DHT22;16482;51.046;4.498;2023-12-14T05:32:29;23.20;35.90
29539;DHT22;16482;51.046;4.498;2023-12-14T05:34:59;23.20;36.00
29539;DHT22;16482;51.046;4.498;2023-12-14T05:37:35;23.20;35.90
29539;DHT22;16482;51.046;4.498;2023-12-14T05:40:09;23.20;35.90
29539;DHT22;16482;51.046;4.498;2023-12-14T05:42:35;23.20;35.80
29539;DHT22;16482;51.046;4.498;2023-12-14T05:45:10;23.20;35.90
29539;DHT22;16482;51.046;4.498;2023-12-14T05:47:36;23.20;35.90
29539;DHT22;16482;51.046;4.498;2023-12-14T05:50:05;23.10;35.80
29539;DHT22;16482;51.046;4.498;2023-12-14T05:52:33;23.10;35.70
29539;DHT22;16482;51.046;4.498;2023-12-14T05:55:09;23.10;35.80
29539;DHT22;16482;51.046;4.498;2023-12-14T05:57:38;23.10;35.70
29539;DHT22;16482;51.046;4.498;2023-12-14T06:00:14;23.10;35.80
29539;DHT22;16482;51.046;4.498;2023-12-14T06:02:43;23.10;35.80
29539;DHT22;16482;51.046;4.498;2023-12-14T06:05:20;23.10;35.80
29539;DHT22;16482;51.046;4.498;2023-12-14T06:07:46;23.10;35.80
29539;DHT22;16482;51.046;4.498;2023-12-14T06:10:12;23.10;36.00
29539;DHT22;16482;51.046;4.498;2023-12-14T06:12:38;23.20;36.80
29539;DHT22;16482;51.046;4.498;2023-12-14T06:15:07;23.20;36.20
29539;DHT22;16482;51.046;4.498;2023-12-14T06:17:36;23.20;36.40
29539;DHT22;16482;51.046;4.498;2023-12-14T06:20:03;23.20;36.50
29539;DHT22;16482;51.046;4.498;2023-12-14T06:22:29;23.30;36.50
29539;DHT22;16482;51.046;4.498;2023-12-14T06:24:58;23.30;36.50
29539;DHT22;16482;51.046;4.498;2023-12-14T06:27:33;23.30;36.40
29539;DHT22;16482;51.046;4.498;2023-12-14T06:29:59;23.40;36.50
29539;DHT22;16482;51.046;4.498;2023-12-14T06:32:28;23.40;36.40
29539;DHT22;16482;51.046;4.498;2023-12-14T06:34:57;23.50;36.30
29539;DHT22;16482;51.046;4.498;2023-12-14T06:37:32;23.50;36.30
29539;DHT22;16482;51.046;4.498;2023-12-14T06:39:58;23.60;36.20
29539;DHT22;16482;51.046;4.498;2023-12-14T06:42:27;23.60;36.20
29539;DHT22;16482;51.046;4.498;2023-12-14T06:44:53;23.70;36.10
29539;DHT22;16482;51.046;4.498;2023-12-14T06:47:22;23.70;36.10
29539;DHT22;16482;51.046;4.498;2023-12-14T06:49:53;23.70;35.90
29539;DHT22;16482;51.046;4.498;2023-12-14T06:52:29;23.80;35.80
29539;DHT22;16482;51.046;4.498;2023-12-14T06:54:55;23.80;35.70
29539;DHT22;16482;51.046;4.498;2023-12-14T06:57:21;23.80;35.70
29539;DHT22;16482;51.046;4.498;2023-12-14T06:59:58;23.80;35.70
29539;DHT22;16482;51.046;4.498;2023-12-14T07:02:24;23.90;35.70
29539;DHT22;16482;51.046;4.498;2023-12-14T07:04:52;23.90;35.60
29539;DHT22;16482;51.046;4.498;2023-12-14T07:07:23;23.90;35.60
29539;DHT22;16482;51.046;4.498;2023-12-14T07:09:52;23.90;35.60
29539;DHT22;16482;51.046;4.498;2023-12-14T07:12:27;23.90;35.80
29539;DHT22;16482;51.046;4.498;2023-12-14T07:14:53;23.90;35.60
29539;DHT22;16482;51.046;4.498;2023-12-14T07:17:24;23.90;35.50
29539;DHT22;16482;51.046;4.498;2023-12-14T07:20:01;23.90;35.50
29539;DHT22;16482;51.046;4.498;2023-12-14T07:22:32;24.00;35.50
29539;DHT22;16482;51.046;4.498;2023-12-14T07:25:00;24.00;35.50
29539;DHT22;16482;51.046;4.498;2023-12-14T07:27:26;24.00;35.40
29539;DHT22;16482;51.046;4.498;2023-12-14T07:29:52;24.00;35.40
29539;DHT22;16482;51.046;4.498;2023-12-14T07:32:21;23.90;35.30
29539;DHT22;16482;51.046;4.498;2023-12-14T07:34:53;24.00;35.40
29539;DHT22;16482;51.046;4.498;2023-12-14T07:37:35;24.00;35.20
29539;DHT22;16482;51.046;4.498;2023-12-14T07:40:01;24.00;35.30
29539;DHT22;16482;51.046;4.498;2023-12-14T07:42:37;24.00;35.20
29539;DHT22;16482;51.046;4.498;2023-12-14T07:45:03;24.00;35.20
29539;DHT22;16482;51.046;4.498;2023-12-14T07:47:29;24.00;35.20
29539;DHT22;16482;51.046;4.498;2023-12-14T07:49:55;24.00;35.20
29539;DHT22;16482;51.046;4.498;2023-12-14T07:52:24;24.10;35.20
29539;DHT22;16482;51.046;4.498;2023-12-14T07:55:00;24.00;35.10
29539;DHT22;16482;51.046;4.498;2023-12-14T07:57:26;24.00;35.00
29539;DHT22;16482;51.046;4.498;2023-12-14T07:59:55;24.10;35.20
29539;DHT22;16482;51.046;4.498;2023-12-14T08:02:21;24.10;35.10
29539;DHT22;16482;51.046;4.498;2023-12-14T08:04:52;24.10;35.00
29539;DHT22;16482;51.046;4.498;2023-12-14T08:07:18;24.10;35.00
29539;DHT22;16482;51.046;4.498;2023-12-14T08:09:55;24.10;35.00
29539;DHT22;16482;51.046;4.498;2023-12-14T08:12:22;24.10;35.00
29539;DHT22;16482;51.046;4.498;2023-12-14T08:14:58;24.10;34.80
29539;DHT22;16482;51.046;4.498;2023-12-14T08:17:24;24.10;34.90
29539;DHT22;16482;51.046;4.498;2023-12-14T08:19:59;24.00;34.80
29539;DHT22;16482;51.046;4.498;2023-12-14T08:22:34;24.10;34.90
29539;DHT22;16482;51.046;4.498;2023-12-14T08:25:14;24.10;34.80
29539;DHT22;16482;51.046;4.498;2023-12-14T08:27:41;24.10;34.80
29539;DHT22;16482;51.046;4.498;2023-12-14T08:30:18;24.10;34.80
29539;DHT22;16482;51.046;4.498;2023-12-14T08:32:44;24.00;34.70
29539;DHT22;16482;51.046;4.498;2023-12-14T08:35:10;24.10;34.80
29539;DHT22;16482;51.046;4.498;2023-12-14T08:37:36;24.00;34.80
29539;DHT22;16482;51.046;4.498;2023-12-14T08:40:15;24.00;34.70
29539;DHT22;16482;51.046;4.498;2023-12-14T08:42:41;24.00;34.70
29539;DHT22;16482;51.046;4.498;2023-12-14T08:45:10;24.00;34.70
29539;DHT22;16482;51.046;4.498;2023-12-14T08:47:39;24.00;34.70
29539;DHT22;16482;51.046;4.498;2023-12-14T08:50:07;24.00;34.80
29539;DHT22;16482;51.046;4.498;2023-12-14T08:52:34;24.00;34.70
29539;DHT22;16482;51.046;4.498;2023-12-14T08:55:03;23.90;34.70
29539;DHT22;16482;51.046;4.498;2023-12-14T08:57:40;24.00;34.60
29539;DHT22;16482;51.046;4.498;2023-12-14T09:00:13;23.90;34.60
29539;DHT22;16482;51.046;4.498;2023-12-14T09:02:41;23.90;34.60
29539;DHT22;16482;51.046;4.498;2023-12-14T09:05:09;23.80;34.50
29539;DHT22;16482;51.046;4.498;2023-12-14T09:07:45;23.90;34.60
29539;DHT22;16482;51.046;4.498;2023-12-14T09:10:22;23.90;34.50
29539;DHT22;16482;51.046;4.498;2023-12-14T09:12:50;23.90;34.40
29539;DHT22;16482;51.046;4.498;2023-12-14T09:15:17;23.90;34.40
29539;DHT22;16482;51.046;4.498;2023-12-14T09:17:42;23.80;34.20
29539;DHT22;16482;51.046;4.498;2023-12-14T09:20:09;23.80;34.20
29539;DHT22;16482;51.046;4.498;2023-12-14T09:22:45;23.80;34.10
29539;DHT22;16482;51.046;4.498;2023-12-14T09:25:12;23.80;34.20
29539;DHT22;16482;51.046;4.498;2023-12-14T09:27:41;23.80;34.20
29539;DHT22;16482;51.046;4.498;2023-12-14T09:30:07;23.80;34.10
29539;DHT22;16482;51.046;4.498;2023-12-14T09:32:33;23.80;34.00
29539;DHT22;16482;51.046;4.498;2023-12-14T09:34:59;23.80;34.10
29539;DHT22;16482;51.046;4.498;2023-12-14T09:37:25;23.80;34.00
29539;DHT22;16482;51.046;4.498;2023-12-14T09:39:51;23.70;34.00
29539;DHT22;16482;51.046;4.498;2023-12-14T09:42:26;23.70;33.90
29539;DHT22;16482;51.046;4.498;2023-12-14T09:44:55;23.70;33.90
29539;DHT22;16482;51.046;4.498;2023-12-14T09:47:31;23.70;33.80
29539;DHT22;16482;51.046;4.498;2023-12-14T09:49:58;23.70;33.80
29539;DHT22;16482;51.046;4.498;2023-12-14T09:52:28;23.70;33.80
29539;DHT22;16482;51.046;4.498;2023-12-14T09:54:57;23.70;34.00
29539;DHT22;16482;51.046;4.498;2023-12-14T09:57:32;23.70;34.10
29539;DHT22;16482;51.046;4.498;2023-12-14T09:59:58;23.70;34.10
29539;DHT22;16482;51.046;4.498;2023-12-14T10:02:27;23.70;34.10
29539;DHT22;16482;51.046;4.498;2023-12-14T10:04:55;23.70;34.20
29539;DHT22;16482;51.046;4.498;2023-12-14T10:07:31;23.70;34.20
29539;DHT22;16482;51.046;4.498;2023-12-14T10:10:11;23.70;34.20
29539;DHT22;16482;51.046;4.498;2023-12-14T10:12:54;23.70;34.10
29539;DHT22;16482;51.046;4.498;2023-12-14T10:15:22;23.70;34.10
29539;DHT22;16482;51.046;4.498;2023-12-14T10:17:54;23.70;34.00
29539;DHT22;16482;51.046;4.498;2023-12-14T10:20:22;23.70;34.10
29539;DHT22;16482;51.046;4.498;2023-12-14T10:22:50;23.70;34.00
29539;DHT22;16482;51.046;4.498;2023-12-14T10:25:18;23.70;34.00
29539;DHT22;16482;51.046;4.498;2023-12-14T10:27:46;23.70;33.90
29539;DHT22;16482;51.046;4.498;2023-12-14T10:30:13;23.60;33.80
29539;DHT22;16482;51.046;4.498;2023-12-14T10:32:41;23.60;33.90
29539;DHT22;16482;51.046;4.498;2023-12-14T10:35:07;23.60;34.00
29539;DHT22;16482;51.046;4.498;2023-12-14T10:37:37;23.60;33.70
29539;DHT22;16482;51.046;4.498;2023-12-14T10:40:11;23.70;33.80
29539;DHT22;16482;51.046;4.498;2023-12-14T10:42:44;23.60;33.90
29539;DHT22;16482;51.046;4.498;2023-12-14T10:45:14;23.60;33.90
29539;DHT22;16482;51.046;4.498;2023-12-14T10:47:46;23.60;34.00
29539;DHT22;16482;51.046;4.498;2023-12-14T10:50:13;23.60;34.00
29539;DHT22;16482;51.046;4.498;2023-12-14T10:52:40;23.60;34.10
29539;DHT22;16482;51.046;4.498;2023-12-14T10:55:25;23.60;34.00
29539;DHT22;16482;51.046;4.498;2023-12-14T10:57:52;23.60;34.00
29539;DHT22;16482;51.046;4.498;2023-12-14T11:00:18;23.60;34.10
29539;DHT22;16482;51.046;4.498;2023-12-14T11:02:47;23.60;34.20
29539;DHT22;16482;51.046;4.498;2023-12-14T11:05:15;23.60;34.20
29539;DHT22;16482;51.046;4.498;2023-12-14T11:07:54;23.60;34.20
29539;DHT22;16482;51.046;4.498;2023-12-14T11:10:27;23.60;34.10
29539;DHT22;16482;51.046;4.498;2023-12-14T11:13:01;23.60;34.80
29539;DHT22;16482;51.046;4.498;2023-12-14T11:15:33;23.60;34.20
29539;DHT22;16482;51.046;4.498;2023-12-14T11:23:14;23.60;34.20
29539;DHT22;16482;51.046;4.498;2023-12-14T11:25:43;23.60;34.10
29539;DHT22;16482;51.046;4.498;2023-12-14T11:28:12;23.60;34.00
29539;DHT22;16482;51.046;4.498;2023-12-14T11:30:43;23.60;34.00
29539;DHT22;16482;51.046;4.498;2023-12-14T11:33:15;23.60;33.90
29539;DHT22;16482;51.046;4.498;2023-12-14T11:35:44;23.60;33.80
29539;DHT22;16482;51.046;4.498;2023-12-14T11:38:20;23.60;33.90
29539;DHT22;16482;51.046;4.498;2023-12-14T11:40:47;23.60;33.80
29539;DHT22;16482;51.046;4.498;2023-12-14T11:43:14;23.60;33.80
29539;DHT22;16482;51.046;4.498;2023-12-14T11:45:43;23.60;33.80
29539;DHT22;16482;51.046;4.498;2023-12-14T11:48:11;23.60;33.80
29539;DHT22;16482;51.046;4.498;2023-12-14T11:50:43;23.60;33.70
29539;DHT22;16482;51.046;4.498;2023-12-14T11:53:12;23.60;33.80
29539;DHT22;16482;51.046;4.498;2023-12-14T11:55:42;23.50;33.70
29539;DHT22;16482;51.046;4.498;2023-12-14T11:58:11;23.60;33.70
29539;DHT22;16482;51.046;4.498;2023-12-14T12:00:37;23.50;33.70
29539;DHT22;16482;51.046;4.498;2023-12-14T12:03:14;23.60;33.80
29539;DHT22;16482;51.046;4.498;2023-12-14T12:05:49;23.50;33.70
29539;DHT22;16482;51.046;4.498;2023-12-14T12:08:17;23.40;33.60
29539;DHT22;16482;51.046;4.498;2023-12-14T12:10:47;23.50;33.80
29539;DHT22;16482;51.046;4.498;2023-12-14T12:13:14;23.50;33.70
29539;DHT22;16482;51.046;4.498;2023-12-14T12:15:43;23.50;33.70
29539;DHT22;16482;51.046;4.498;2023-12-14T12:18:13;23.50;33.80
29539;DHT22;16482;51.046;4.498;2023-12-14T12:20:47;23.50;33.80
29539;DHT22;16482;51.046;4.498;2023-12-14T12:23:13;23.50;33.90
29539;DHT22;16482;51.046;4.498;2023-12-14T12:25:44;23.50;33.90
29539;DHT22;16482;51.046;4.498;2023-12-14T12:28:13;23.50;34.60
29539;DHT22;16482;51.046;4.498;2023-12-14T12:30:47;23.50;34.10
29539;DHT22;16482;51.046;4.498;2023-12-14T12:33:16;23.50;34.20
29539;DHT22;16482;51.046;4.498;2023-12-14T12:35:42;23.50;34.30
29539;DHT22;16482;51.046;4.498;2023-12-14T12:38:13;23.50;34.60
29539;DHT22;16482;51.046;4.498;2023-12-14T12:40:41;23.50;34.90
29539;DHT22;16482;51.046;4.498;2023-12-14T12:43:07;23.50;35.00
29539;DHT22;16482;51.046;4.498;2023-12-14T12:45:41;23.50;35.20
29539;DHT22;16482;51.046;4.498;2023-12-14T12:48:09;23.50;35.20
29539;DHT22;16482;51.046;4.498;2023-12-14T12:50:36;23.50;35.30
29539;DHT22;16482;51.046;4.498;2023-12-14T12:53:02;23.50;35.50
29539;DHT22;16482;51.046;4.498;2023-12-14T12:55:28;23.50;35.60
29539;DHT22;16482;51.046;4.498;2023-12-14T12:57:54;23.50;35.70
29539;DHT22;16482;51.046;4.498;2023-12-14T13:00:23;23.50;35.70
29539;DHT22;16482;51.046;4.498;2023-12-14T13:02:48;23.50;35.80
29539;DHT22;16482;51.046;4.498;2023-12-14T13:05:24;23.50;35.80
29539;DHT22;16482;51.046;4.498;2023-12-14T13:07:50;23.50;35.90
29539;DHT22;16482;51.046;4.498;2023-12-14T13:10:16;23.40;35.90
29539;DHT22;16482;51.046;4.498;2023-12-14T13:12:44;23.40;35.90
29539;DHT22;16482;51.046;4.498;2023-12-14T13:15:10;23.50;36.00
29539;DHT22;16482;51.046;4.498;2023-12-14T13:17:36;23.50;36.10
29539;DHT22;16482;51.046;4.498;2023-12-14T13:20:05;23.50;36.10
29539;DHT22;16482;51.046;4.498;2023-12-14T13:22:32;23.50;36.20
29539;DHT22;16482;51.046;4.498;2023-12-14T13:24:58;23.50;36.10
29539;DHT22;16482;51.046;4.498;2023-12-14T13:27:25;23.50;36.10
29539;DHT22;16482;51.046;4.498;2023-12-14T13:29:53;23.50;36.10
29539;DHT22;16482;51.046;4.498;2023-12-14T13:32:27;23.50;36.10
29539;DHT22;16482;51.046;4.498;2023-12-14T13:34:53;23.50;36.10
29539;DHT22;16482;51.046;4.498;2023-12-14T13:37:19;23.50;36.20
29539;DHT22;16482;51.046;4.498;2023-12-14T13:39:45;23.40;36.10
29539;DHT22;16482;51.046;4.498;2023-12-14T13:42:10;23.50;36.20
29539;DHT22;16482;51.046;4.498;2023-12-14T13:44:46;23.40;36.10
29539;DHT22;16482;51.046;4.498;2023-12-14T13:47:22;23.40;36.20
29539;DHT22;16482;51.046;4.498;2023-12-14T13:49:48;23.40;36.20
29539;DHT22;16482;51.046;4.498;2023-12-14T13:52:24;23.40;36.20
29539;DHT22;16482;51.046;4.498;2023-12-14T13:54:52;23.40;36.20
29539;DHT22;16482;51.046;4.498;2023-12-14T13:57:26;23.30;36.20
29539;DHT22;16482;51.046;4.498;2023-12-14T13:59:53;23.30;36.20
29539;DHT22;16482;51.046;4.498;2023-12-14T14:02:22;23.30;36.20
29539;DHT22;16482;51.046;4.498;2023-12-14T14:04:53;23.30;36.40
29539;DHT22;16482;51.046;4.498;2023-12-14T14:07:19;23.30;36.30
29539;DHT22;16482;51.046;4.498;2023-12-14T14:09:48;23.30;36.40
29539;DHT22;16482;51.046;4.498;2023-12-14T14:12:14;23.30;36.40
29539;DHT22;16482;51.046;4.498;2023-12-14T14:14:40;23.30;36.40
29539;DHT22;16482;51.046;4.498;2023-12-14T14:17:06;23.30;36.40
29539;DHT22;16482;51.046;4.498;2023-12-14T14:19:33;23.40;36.50
29539;DHT22;16482;51.046;4.498;2023-12-14T14:22:01;23.30;36.50
29539;DHT22;16482;51.046;4.498;2023-12-14T14:24:30;23.30;36.60
29539;DHT22;16482;51.046;4.498;2023-12-14T14:26:57;23.40;36.60
29539;DHT22;16482;51.046;4.498;2023-12-14T14:29:25;23.30;36.60
29539;DHT22;16482;51.046;4.498;2023-12-14T14:31:51;23.30;36.70
29539;DHT22;16482;51.046;4.498;2023-12-14T14:34:17;23.30;36.70
29539;DHT22;16482;51.046;4.498;2023-12-14T14:36:53;23.30;36.70
29539;DHT22;16482;51.046;4.498;2023-12-14T14:39:19;23.30;36.70
29539;DHT22;16482;51.046;4.498;2023-12-14T14:41:54;23.30;36.70
29539;DHT22;16482;51.046;4.498;2023-12-14T14:44:20;23.30;36.80
29539;DHT22;16482;51.046;4.498;2023-12-14T14:46:46;23.30;36.70
29539;DHT22;16482;51.046;4.498;2023-12-14T14:49:12;23.30;36.70
29539;DHT22;16482;51.046;4.498;2023-12-14T14:51:41;23.30;36.70
29539;DHT22;16482;51.046;4.498;2023-12-14T14:54:09;23.30;36.70
29539;DHT22;16482;51.046;4.498;2023-12-14T14:56:35;23.30;36.70
29539;DHT22;16482;51.046;4.498;2023-12-14T14:59:11;23.30;36.70
29539;DHT22;16482;51.046;4.498;2023-12-14T15:01:41;23.30;36.70
29539;DHT22;16482;51.046;4.498;2023-12-14T15:04:10;23.30;36.60
29539;DHT22;16482;51.046;4.498;2023-12-14T15:06:36;23.40;36.70
29539;DHT22;16482;51.046;4.498;2023-12-14T15:09:06;23.30;36.70
29539;DHT22;16482;51.046;4.498;2023-12-14T15:11:33;23.30;36.60
29539;DHT22;16482;51.046;4.498;2023-12-14T15:14:06;23.30;36.70
29539;DHT22;16482;51.046;4.498;2023-12-14T15:16:32;23.30;36.60
29539;DHT22;16482;51.046;4.498;2023-12-14T15:19:07;23.30;36.70
29539;DHT22;16482;51.046;4.498;2023-12-14T15:21:37;23.30;36.60
29539;DHT22;16482;51.046;4.498;2023-12-14T15:24:03;23.30;36.60
29539;DHT22;16482;51.046;4.498;2023-12-14T15:26:36;23.30;36.60
29539;DHT22;16482;51.046;4.498;2023-12-14T15:29:02;23.30;36.60
29539;DHT22;16482;51.046;4.498;2023-12-14T15:31:32;23.30;36.60
29539;DHT22;16482;51.046;4.498;2023-12-14T15:33:58;23.30;36.60
29539;DHT22;16482;51.046;4.498;2023-12-14T15:36:34;23.30;36.60
29539;DHT22;16482;51.046;4.498;2023-12-14T15:39:03;23.30;36.60
29539;DHT22;16482;51.046;4.498;2023-12-14T15:41:32;23.40;36.90
29539;DHT22;16482;51.046;4.498;2023-12-14T15:44:03;23.40;37.00
29539;DHT22;16482;51.046;4.498;2023-12-14T15:46:33;23.40;37.00
29539;DHT22;16482;51.046;4.498;2023-12-14T15:48:59;23.40;36.90